createdAt,value
2018-12-13T00:00:54.859Z,592.2
2018-12-13T00:01:57.276Z,592.6
2018-12-13T00:02:59.701Z,592.3
2018-12-13T00:04:02.132Z,592.4
2018-12-13T00:05:04.565Z,593
2018-12-13T00:06:06.437Z,593.3
2018-12-13T00:07:08.589Z,593.2
2018-12-13T00:08:11.015Z,593.1
2018-12-13T00:09:13.439Z,593.2
2018-12-13T00:10:15.597Z,593.3
2018-12-13T00:11:18.022Z,593.5
2018-12-13T00:12:20.171Z,593.7
2018-12-13T00:13:22.601Z,593.8
2018-12-13T00:14:25.031Z,594.1
2018-12-13T00:15:26.892Z,593.8
2018-12-13T00:16:29.047Z,593.9
2018-12-13T00:17:31.479Z,594.2
2018-12-13T00:18:33.651Z,594.4
2018-12-13T00:19:35.784Z,594.4
2018-12-13T00:20:38.209Z,594.2
2018-12-13T00:21:40.629Z,594.3
2018-12-13T00:22:42.821Z,594.4
2018-12-13T00:23:44.951Z,594.5
2018-12-13T00:24:47.106Z,594.6
2018-12-13T00:25:49.531Z,595
2018-12-13T00:26:51.951Z,595
2018-12-13T00:27:54.096Z,595
2018-12-13T00:28:56.521Z,595
2018-12-13T00:29:58.667Z,595.4
2018-12-13T00:31:01.103Z,595.6
2018-12-13T00:32:03.521Z,595.6
2018-12-13T00:33:05.949Z,595.4
2018-12-13T00:34:08.085Z,595.5
2018-12-13T00:35:10.518Z,595.5
2018-12-13T00:36:12.941Z,595.7
2018-12-13T00:37:15.365Z,595.8
2018-12-13T00:38:17.499Z,595.9
2018-12-13T00:39:19.930Z,595.6
2018-12-13T00:40:22.351Z,595.4
2018-12-13T00:41:24.783Z,595.8
2018-12-13T00:42:27.222Z,595.6
2018-12-13T00:43:29.641Z,595.8
2018-12-13T00:44:32.063Z,595.5
2018-12-13T00:45:34.221Z,596.1
2018-12-13T00:46:36.654Z,596
2018-12-13T00:47:38.535Z,596
2018-12-13T00:48:40.963Z,596
2018-12-13T00:49:43.107Z,596.1
2018-12-13T00:50:45.529Z,596
2018-12-13T00:51:47.955Z,596.5
2018-12-13T00:52:50.107Z,596.8
2018-12-13T00:53:52.531Z,596.7
2018-12-13T00:54:54.680Z,597
2018-12-13T00:55:57.124Z,596.8
2018-12-13T00:56:59.283Z,596.8
2018-12-13T00:58:01.430Z,597.1
2018-12-13T00:59:03.595Z,597.2
2018-12-13T01:00:05.734Z,597.1
2018-12-13T01:01:07.889Z,597.1
2018-12-13T01:02:10.315Z,596.9
2018-12-13T01:03:12.752Z,597.1
2018-12-13T01:04:14.894Z,596.9
2018-12-13T01:05:17.058Z,596.8
2018-12-13T01:06:19.492Z,597.2
2018-12-13T01:07:21.911Z,597
2018-12-13T01:08:24.062Z,597.7
2018-12-13T01:09:26.221Z,596.6
2018-12-13T01:10:28.068Z,596.6
2018-12-13T01:11:30.490Z,597.1
2018-12-13T01:12:32.926Z,596.8
2018-12-13T01:13:35.342Z,597.2
2018-12-13T01:14:37.772Z,597.1
2018-12-13T01:15:39.932Z,597.4
2018-12-13T01:16:42.360Z,597
2018-12-13T01:17:44.521Z,597.2
2018-12-13T01:18:46.945Z,597
2018-12-13T01:19:49.372Z,597.5
2018-12-13T01:20:51.520Z,596.8
2018-12-13T01:21:53.949Z,597.2
2018-12-13T01:22:56.390Z,597
2018-12-13T01:23:58.822Z,597.2
2018-12-13T01:25:01.249Z,596.7
2018-12-13T01:26:03.681Z,597.5
2018-12-13T01:27:05.838Z,597.7
2018-12-13T01:28:08.017Z,597.4
2018-12-13T01:29:10.156Z,597.7
2018-12-13T01:30:12.588Z,597.9
2018-12-13T01:31:15.009Z,597.4
2018-12-13T01:32:17.428Z,597.5
2018-12-13T01:33:19.863Z,597.5
2018-12-13T01:34:22.288Z,597.7
2018-12-13T01:35:24.171Z,597.7
2018-12-13T01:36:26.586Z,597.8
2018-12-13T01:37:29.018Z,598.2
2018-12-13T01:38:31.181Z,598.2
2018-12-13T01:39:33.606Z,598.3
2018-12-13T01:40:35.467Z,598.2
2018-12-13T01:41:37.341Z,598.4
2018-12-13T01:42:39.779Z,598.4
2018-12-13T01:43:42.194Z,598.5
2018-12-13T01:44:44.500Z,598.8
2018-12-13T01:45:46.733Z,598.8
2018-12-13T01:46:48.885Z,598.6
2018-12-13T01:47:51.038Z,598.8
2018-12-13T01:48:53.451Z,598.9
2018-12-13T01:49:55.883Z,599.2
2018-12-13T01:50:58.311Z,599.2
2018-12-13T01:52:00.183Z,599.4
2018-12-13T01:53:02.350Z,599.1
2018-12-13T01:54:04.490Z,599.1
2018-12-13T01:55:06.922Z,599.8
2018-12-13T01:56:09.350Z,599.6
2018-12-13T01:57:11.768Z,599.4
2018-12-13T01:58:13.910Z,599.8
2018-12-13T01:59:15.788Z,599.7
2018-12-13T02:00:18.203Z,600.1
2018-12-13T02:01:20.348Z,599.9
2018-12-13T02:02:22.503Z,600.2
2018-12-13T02:03:24.393Z,600.1
2018-12-13T02:04:26.834Z,600.6
2018-12-13T02:05:29.265Z,600.2
2018-12-13T02:06:31.413Z,600.5
2018-12-13T02:07:33.584Z,600.8
2018-12-13T02:08:35.709Z,601.2
2018-12-13T02:09:37.852Z,601.2
2018-12-13T02:10:40.268Z,601.3
2018-12-13T02:11:42.433Z,601.4
2018-12-13T02:12:44.581Z,601.7
2018-12-13T02:13:47.014Z,601.4
2018-12-13T02:14:49.177Z,601.7
2018-12-13T02:15:51.599Z,601.7
2018-12-13T02:16:54.031Z,601.3
2018-12-13T02:17:56.527Z,601.2
2018-12-13T02:18:58.973Z,601.4
2018-12-13T02:20:00.859Z,601.7
2018-12-13T02:21:03.283Z,601.7
2018-12-13T02:22:05.713Z,601.5
2018-12-13T02:23:07.591Z,601.3
2018-12-13T02:24:09.823Z,601.4
2018-12-13T02:25:12.244Z,601.6
2018-12-13T02:26:14.678Z,601.5
2018-12-13T02:27:17.112Z,601.2
2018-12-13T02:28:19.263Z,601.2
2018-12-13T02:29:21.426Z,601.5
2018-12-13T02:30:23.315Z,602
2018-12-13T02:31:25.741Z,602
2018-12-13T02:32:27.868Z,601.8
2018-12-13T02:33:29.996Z,601.6
2018-12-13T02:34:32.414Z,601.5
2018-12-13T02:35:34.583Z,601.8
2018-12-13T02:36:36.743Z,602.1
2018-12-13T02:37:39.181Z,602.2
2018-12-13T02:38:41.342Z,602
2018-12-13T02:39:43.759Z,602.3
2018-12-13T02:40:46.175Z,602.3
2018-12-13T02:41:48.599Z,602.3
2018-12-13T02:42:50.753Z,602.4
2018-12-13T02:43:53.189Z,602.6
2018-12-13T02:44:55.353Z,602.5
2018-12-13T02:45:57.513Z,602.6
2018-12-13T02:46:59.942Z,602.8
2018-12-13T02:48:02.093Z,603.2
2018-12-13T02:49:04.522Z,603.1
2018-12-13T02:50:06.463Z,602.8
2018-12-13T02:51:08.622Z,603.6
2018-12-13T02:52:11.051Z,603.2
2018-12-13T02:53:13.473Z,603.3
2018-12-13T02:54:15.902Z,602.9
2018-12-13T02:55:18.053Z,603.1
2018-12-13T02:56:20.468Z,602.9
2018-12-13T02:57:22.599Z,603.6
2018-12-13T02:58:25.024Z,603.1
2018-12-13T02:59:27.452Z,603
2018-12-13T03:00:29.923Z,603.2
2018-12-13T03:01:32.076Z,603.4
2018-12-13T03:02:34.502Z,603.3
2018-12-13T03:03:36.654Z,603.7
2018-12-13T03:04:38.811Z,603.2
2018-12-13T03:05:40.130Z,603.2
2018-12-13T03:06:41.993Z,603.1
2018-12-13T03:07:44.422Z,603.4
2018-12-13T03:08:46.284Z,603.4
2018-12-13T03:09:48.142Z,603.5
2018-12-13T03:10:50.574Z,604.1
2018-12-13T03:11:53.054Z,603.6
2018-12-13T03:12:55.484Z,603.6
2018-12-13T03:13:57.638Z,603.5
2018-12-13T03:14:58.953Z,603.6
2018-12-13T03:16:00.828Z,603.9
2018-12-13T03:17:03.258Z,603.8
2018-12-13T03:18:05.134Z,604
2018-12-13T03:19:07.562Z,603.5
2018-12-13T03:20:09.999Z,603.3
2018-12-13T03:21:12.429Z,603.7
2018-12-13T03:22:14.857Z,603.9
2018-12-13T03:23:17.290Z,603.5
2018-12-13T03:24:19.437Z,604
2018-12-13T03:25:21.621Z,603.7
2018-12-13T03:26:24.053Z,604.2
2018-12-13T03:27:26.503Z,604.3
2018-12-13T03:28:28.647Z,604.4
2018-12-13T03:29:31.071Z,604.4
2018-12-13T03:30:33.506Z,604.2
2018-12-13T03:31:36.120Z,604.2
2018-12-13T03:32:38.019Z,604.7
2018-12-13T03:33:40.170Z,604.9
2018-12-13T03:34:42.324Z,604.9
2018-12-13T03:35:44.737Z,604.7
2018-12-13T03:36:47.153Z,605.1
2018-12-13T03:37:49.303Z,605.2
2018-12-13T03:38:51.179Z,605.4
2018-12-13T03:39:53.360Z,605.6
2018-12-13T03:40:55.824Z,605.9
2018-12-13T03:41:57.703Z,605.8
2018-12-13T03:43:00.140Z,606
2018-12-13T03:44:02.332Z,606.2
2018-12-13T03:45:04.473Z,605.5
2018-12-13T03:46:06.660Z,606.1
2018-12-13T03:47:09.097Z,606
2018-12-13T03:48:11.509Z,605.9
2018-12-13T03:49:13.933Z,605.9
2018-12-13T03:50:16.353Z,606.1
2018-12-13T03:51:18.507Z,605.9
2018-12-13T03:52:20.675Z,605.8
2018-12-13T03:53:22.848Z,606.4
2018-12-13T03:54:25.352Z,606.5
2018-12-13T03:55:27.774Z,606.7
2018-12-13T03:56:29.903Z,606.9
2018-12-13T03:57:32.050Z,606.5
2018-12-13T03:58:34.473Z,606.8
2018-12-13T03:59:36.632Z,606.5
2018-12-13T04:00:39.062Z,607
2018-12-13T04:01:41.488Z,606.6
2018-12-13T04:02:43.633Z,606.9
2018-12-13T04:03:45.782Z,607.2
2018-12-13T04:04:47.923Z,606.9
2018-12-13T04:05:49.826Z,607.4
2018-12-13T04:06:51.983Z,607.4
2018-12-13T04:07:54.411Z,607.7
2018-12-13T04:08:56.550Z,608
2018-12-13T04:09:58.711Z,608
2018-12-13T04:11:00.853Z,608.2
2018-12-13T04:12:03.272Z,608
2018-12-13T04:13:05.437Z,608.1
2018-12-13T04:14:07.862Z,608.4
2018-12-13T04:15:10.279Z,608.4
2018-12-13T04:16:12.438Z,608.4
2018-12-13T04:17:14.865Z,609.3
2018-12-13T04:18:17.294Z,608.9
2018-12-13T04:19:19.447Z,609
2018-12-13T04:20:21.599Z,609.2
2018-12-13T04:21:24.039Z,608.9
2018-12-13T04:22:26.462Z,609.1
2018-12-13T04:23:28.593Z,609.4
2018-12-13T04:24:31.041Z,609.4
2018-12-13T04:25:33.529Z,609.2
2018-12-13T04:26:35.969Z,609.6
2018-12-13T04:27:38.390Z,609.4
2018-12-13T04:28:40.549Z,609.8
2018-12-13T04:29:42.698Z,609.7
2018-12-13T04:30:45.118Z,609.9
2018-12-13T04:31:47.541Z,609.9
2018-12-13T04:32:49.964Z,610
2018-12-13T04:33:52.402Z,609.2
2018-12-13T04:34:54.818Z,609.9
2018-12-13T04:35:57.243Z,610.1
2018-12-13T04:36:59.716Z,609.9
2018-12-13T04:38:02.147Z,610
2018-12-13T04:39:04.565Z,609.9
2018-12-13T04:40:06.716Z,610.3
2018-12-13T04:41:09.132Z,610.3
2018-12-13T04:42:11.293Z,610.3
2018-12-13T04:43:13.727Z,610.7
2018-12-13T04:44:15.620Z,610.4
2018-12-13T04:45:18.039Z,610.3
2018-12-13T04:46:20.199Z,610.4
2018-12-13T04:47:22.628Z,610.4
2018-12-13T04:48:24.760Z,610.1
2018-12-13T04:49:26.910Z,610.7
2018-12-13T04:50:29.332Z,610.9
2018-12-13T04:51:31.195Z,610.7
2018-12-13T04:52:33.609Z,610.7
2018-12-13T04:53:36.033Z,610.9
2018-12-13T04:54:38.470Z,611.2
2018-12-13T04:55:40.898Z,611.3
2018-12-13T04:56:43.328Z,611.2
2018-12-13T04:57:45.191Z,611.4
2018-12-13T04:58:47.609Z,611.5
2018-12-13T04:59:50.030Z,611
2018-12-13T05:00:51.911Z,611.4
2018-12-13T05:01:54.340Z,611.9
2018-12-13T05:02:56.503Z,612
2018-12-13T05:03:58.655Z,612.3
2018-12-13T05:05:01.073Z,612.2
2018-12-13T05:06:02.925Z,612.2
2018-12-13T05:07:05.080Z,612.6
2018-12-13T05:08:07.231Z,612.2
2018-12-13T05:09:09.377Z,612.3
2018-12-13T05:10:11.533Z,612.6
2018-12-13T05:11:13.950Z,612.3
2018-12-13T05:12:16.087Z,612.7
2018-12-13T05:13:18.521Z,612.7
2018-12-13T05:14:20.653Z,613.1
2018-12-13T05:15:23.080Z,612.9
2018-12-13T05:16:25.245Z,612.9
2018-12-13T05:17:27.671Z,613.2
2018-12-13T05:18:29.823Z,612.8
2018-12-13T05:19:32.253Z,613.3
2018-12-13T05:20:34.671Z,613
2018-12-13T05:21:36.851Z,613
2018-12-13T05:22:39.272Z,613.2
2018-12-13T05:23:41.155Z,613.3
2018-12-13T05:24:43.589Z,613.6
2018-12-13T05:25:45.738Z,613.3
2018-12-13T05:26:48.171Z,613
2018-12-13T05:27:50.601Z,613.4
2018-12-13T05:28:52.245Z,613.6
2018-12-13T05:29:54.669Z,613.7
2018-12-13T05:30:57.106Z,614
2018-12-13T05:31:59.120Z,614.3
2018-12-13T05:33:01.570Z,613.8
2018-12-13T05:34:03.427Z,614
2018-12-13T05:35:05.585Z,613.9
2018-12-13T05:36:08.022Z,614
2018-12-13T05:37:10.454Z,614.1
2018-12-13T05:38:12.612Z,614
2018-12-13T05:39:14.772Z,614.1
2018-12-13T05:40:18.017Z,614
2018-12-13T05:41:20.241Z,614.3
2018-12-13T05:42:22.665Z,614.7
2018-12-13T05:43:26.126Z,614.7
2018-12-13T05:44:28.294Z,615.2
2018-12-13T05:45:30.714Z,615.2
2018-12-13T05:46:32.876Z,615
2018-12-13T05:47:35.300Z,615.3
2018-12-13T05:48:37.739Z,615.2
2018-12-13T05:49:39.949Z,614.7
2018-12-13T05:50:42.383Z,615
2018-12-13T05:51:44.801Z,614.8
2018-12-13T05:52:46.967Z,614.7
2018-12-13T05:53:49.391Z,614.7
2018-12-13T05:54:51.818Z,614.7
2018-12-13T05:55:54.237Z,614.9
2018-12-13T05:56:56.668Z,614.6
2018-12-13T05:57:59.101Z,614.7
2018-12-13T05:59:01.247Z,614.7
2018-12-13T06:00:03.680Z,615.2
2018-12-13T06:01:05.840Z,615
2018-12-13T06:02:08.273Z,615
2018-12-13T06:03:10.427Z,615.2
2018-12-13T06:04:12.858Z,615.6
2018-12-13T06:05:15.289Z,615.5
2018-12-13T06:06:17.177Z,615.3
2018-12-13T06:07:19.305Z,615.8
2018-12-13T06:08:21.473Z,615.6
2018-12-13T06:09:23.914Z,615.9
2018-12-13T06:10:26.051Z,615.9
2018-12-13T06:11:28.181Z,615.9
2018-12-13T06:12:30.622Z,616
2018-12-13T06:13:32.786Z,615.8
2018-12-13T06:14:35.214Z,615.6
2018-12-13T06:15:37.640Z,615.6
2018-12-13T06:16:39.791Z,615.9
2018-12-13T06:17:42.933Z,615.9
2018-12-13T06:18:45.078Z,615.2
2018-12-13T06:19:47.504Z,615.5
2018-12-13T06:20:49.934Z,615.7
2018-12-13T06:21:52.350Z,615.9
2018-12-13T06:22:54.802Z,615.6
2018-12-13T06:23:56.968Z,615.8
2018-12-13T06:24:59.102Z,615.6
2018-12-13T06:26:01.530Z,616
2018-12-13T06:27:03.956Z,615.8
2018-12-13T06:28:06.373Z,616
2018-12-13T06:29:08.798Z,615.8
2018-12-13T06:30:11.232Z,615.4
2018-12-13T06:31:13.658Z,615.9
2018-12-13T06:32:16.093Z,616
2018-12-13T06:34:24.949Z,616
2018-12-13T06:35:27.140Z,615.8
2018-12-13T06:36:29.276Z,615.4
2018-12-13T06:37:31.424Z,615.4
2018-12-13T06:38:33.842Z,615.9
2018-12-13T06:39:36.270Z,615.8
2018-12-13T06:40:38.422Z,615.5
2018-12-13T06:41:40.550Z,615.3
2018-12-13T06:42:42.982Z,615.5
2018-12-13T06:43:45.412Z,615.3
2018-12-13T06:44:47.575Z,615.2
2018-12-13T06:45:49.454Z,615.4
2018-12-13T06:46:51.892Z,615.2
2018-12-13T06:47:54.320Z,615.6
2018-12-13T06:48:56.480Z,615.2
2018-12-13T06:49:58.954Z,615.2
2018-12-13T06:51:01.382Z,615.4
2018-12-13T06:52:03.812Z,615.3
2018-12-13T06:53:05.953Z,615
2018-12-13T06:54:08.098Z,615.3
2018-12-13T06:55:10.530Z,615.2
2018-12-13T06:56:12.954Z,615.2
2018-12-13T06:57:15.113Z,614.9
2018-12-13T06:58:17.538Z,614.7
2018-12-13T06:59:19.983Z,614.3
2018-12-13T07:00:22.419Z,614.7
2018-12-13T07:01:24.865Z,614.6
2018-12-13T07:02:27.293Z,614.7
2018-12-13T07:03:29.461Z,614.5
2018-12-13T07:04:31.896Z,614.9
2018-12-13T07:05:34.037Z,614.8
2018-12-13T07:06:36.468Z,614.7
2018-12-13T07:07:38.356Z,614.4
2018-12-13T07:08:40.513Z,614.5
2018-12-13T07:09:42.935Z,614.2
2018-12-13T07:10:45.357Z,615.1
2018-12-13T07:11:47.795Z,614.6
2018-12-13T07:12:49.960Z,614.9
2018-12-13T07:13:52.121Z,614.8
2018-12-13T07:14:54.553Z,614.7
2018-12-13T07:15:56.721Z,614.7
2018-12-13T07:16:58.596Z,614.8
2018-12-13T07:18:01.021Z,614.7
2018-12-13T07:19:03.184Z,614.4
2018-12-13T07:20:05.612Z,614.3
2018-12-13T07:21:07.772Z,614.6
2018-12-13T07:22:10.266Z,614.3
2018-12-13T07:23:12.124Z,614.3
2018-12-13T07:24:14.259Z,614.4
2018-12-13T07:25:16.690Z,614.5
2018-12-13T07:26:18.859Z,614.4
2018-12-13T07:27:21.012Z,614.8
2018-12-13T07:28:23.446Z,614.5
2018-12-13T07:29:25.602Z,614.3
2018-12-13T07:30:27.741Z,614.2
2018-12-13T07:31:29.892Z,614.7
2018-12-13T07:32:32.323Z,615
2018-12-13T07:33:34.493Z,615
2018-12-13T07:34:36.931Z,615
2018-12-13T07:35:39.351Z,615.4
2018-12-13T07:36:41.822Z,615.2
2018-12-13T07:37:43.968Z,615.6
2018-12-13T07:38:46.121Z,615.4
2018-12-13T07:39:48.280Z,616
2018-12-13T07:40:50.722Z,615.7
2018-12-13T07:41:52.887Z,615.8
2018-12-13T07:42:55.050Z,615.6
2018-12-13T07:43:56.913Z,615.6
2018-12-13T07:44:59.152Z,615.8
2018-12-13T07:46:01.584Z,615.8
2018-12-13T07:47:04.013Z,615.5
2018-12-13T07:48:06.152Z,616
2018-12-13T07:49:08.307Z,615.9
2018-12-13T07:50:10.484Z,615.9
2018-12-13T07:51:12.914Z,615.8
2018-12-13T07:52:15.340Z,615.7
2018-12-13T07:53:17.479Z,615.6
2018-12-13T07:54:19.902Z,616
2018-12-13T07:55:21.491Z,616.1
2018-12-13T07:56:23.919Z,615.6
2018-12-13T07:57:26.347Z,616.1
2018-12-13T07:58:28.511Z,616.6
2018-12-13T07:59:30.938Z,615.7
2018-12-13T08:00:33.359Z,616.4
2018-12-13T08:01:35.511Z,616.5
2018-12-13T08:02:37.671Z,616.2
2018-12-13T08:03:39.552Z,615.7
2018-12-13T08:04:41.972Z,616
2018-12-13T08:05:44.134Z,616.3
2018-12-13T08:06:46.561Z,616.4
2018-12-13T08:07:49.005Z,616.4
2018-12-13T08:08:50.906Z,616.2
2018-12-13T08:09:53.063Z,616.2
2018-12-13T08:10:55.491Z,616.2
2018-12-13T08:11:57.932Z,616.4
2018-12-13T08:13:00.363Z,616.3
2018-12-13T08:14:02.511Z,616.1
2018-12-13T08:15:04.697Z,616.7
2018-12-13T08:16:07.141Z,616.7
2018-12-13T08:17:09.309Z,616.3
2018-12-13T08:18:11.461Z,616.3
2018-12-13T08:19:13.883Z,616.2
2018-12-13T08:20:16.084Z,616.5
2018-12-13T08:21:17.965Z,616.8
2018-12-13T08:22:20.397Z,616.5
2018-12-13T08:23:22.821Z,616.5
2018-12-13T08:24:24.995Z,616.5
2018-12-13T08:25:27.430Z,616.4
2018-12-13T08:26:29.862Z,616.6
2018-12-13T08:27:32.289Z,616.8
2018-12-13T08:28:34.704Z,616.5
2018-12-13T08:29:37.125Z,616.3
2018-12-13T08:30:39.559Z,616.5
2018-12-13T08:31:41.973Z,616.4
2018-12-13T08:32:44.399Z,616.9
2018-12-13T08:33:46.833Z,616.6
2018-12-13T08:34:48.983Z,616.5
2018-12-13T08:35:51.131Z,616.6
2018-12-13T08:36:53.297Z,616.9
2018-12-13T08:37:55.461Z,616.8
2018-12-13T08:38:57.899Z,617.1
2018-12-13T08:39:59.483Z,617.2
2018-12-13T08:41:01.913Z,617.1
2018-12-13T08:42:04.062Z,617.1
2018-12-13T08:43:06.504Z,617.4
2018-12-13T08:44:08.952Z,617.6
2018-12-13T08:45:11.110Z,617.8
2018-12-13T08:46:13.545Z,618
2018-12-13T08:47:15.976Z,617.7
2018-12-13T08:48:18.124Z,617.7
2018-12-13T08:49:20.549Z,617.7
2018-12-13T08:50:22.434Z,617.8
2018-12-13T08:51:24.854Z,617.8
2018-12-13T08:52:27.001Z,618.1
2018-12-13T08:53:29.429Z,618.6
2018-12-13T08:54:31.844Z,618.5
2018-12-13T08:55:34.274Z,618.6
2018-12-13T08:56:36.704Z,618.6
2018-12-13T08:57:39.138Z,619.1
2018-12-13T08:58:41.263Z,619
2018-12-13T08:59:43.691Z,618.8
2018-12-13T09:00:45.836Z,619
2018-12-13T09:01:48.260Z,619.1
2018-12-13T09:02:50.684Z,619.2
2018-12-13T09:03:53.100Z,619.4
2018-12-13T09:04:55.540Z,619.4
2018-12-13T09:05:57.983Z,618.8
2018-12-13T09:07:00.404Z,619.7
2018-12-13T09:08:02.819Z,619
2018-12-13T09:09:04.973Z,619.8
2018-12-13T09:10:07.396Z,619.7
2018-12-13T09:11:09.534Z,619.5
2018-12-13T09:12:11.970Z,619.3
2018-12-13T09:13:14.117Z,619.2
2018-12-13T09:14:15.988Z,619.5
2018-12-13T09:15:19.759Z,619.7
2018-12-13T09:16:22.305Z,619.5
2018-12-13T09:17:24.729Z,619.3
2018-12-13T09:18:27.156Z,619.5
2018-12-13T09:19:29.300Z,619.5
2018-12-13T09:20:31.458Z,619.8
2018-12-13T09:21:33.613Z,619.2
2018-12-13T09:22:36.042Z,619.6
2018-12-13T09:23:38.482Z,619.4
2018-12-13T09:24:40.644Z,619.5
2018-12-13T09:25:43.116Z,619.7
2018-12-13T09:26:45.251Z,619.5
2018-12-13T09:27:47.674Z,619.2
2018-12-13T09:28:49.812Z,619.4
2018-12-13T09:29:52.239Z,619.3
2018-12-13T09:30:54.374Z,619.1
2018-12-13T09:31:56.533Z,619.1
2018-12-13T09:32:58.963Z,619.3
2018-12-13T09:34:01.116Z,619.6
2018-12-13T09:35:03.544Z,619.4
2018-12-13T09:36:05.990Z,619.8
2018-12-13T09:37:08.415Z,619.8
2018-12-13T09:38:10.837Z,619.8
2018-12-13T09:39:12.986Z,619.8
2018-12-13T09:40:15.124Z,619.9
2018-12-13T09:41:17.012Z,619.9
2018-12-13T09:42:18.880Z,620.3
2018-12-13T09:43:21.001Z,619.9
2018-12-13T09:44:23.442Z,620.2
2018-12-13T09:45:25.307Z,620
2018-12-13T09:46:27.739Z,620.2
2018-12-13T09:47:30.164Z,620
2018-12-13T09:48:32.317Z,620.1
2018-12-13T09:49:34.474Z,620.2
2018-12-13T09:50:36.897Z,619.8
2018-12-13T09:51:38.748Z,620.1
2018-12-13T09:52:40.908Z,620.4
2018-12-13T09:53:43.337Z,620.3
2018-12-13T09:54:45.754Z,620.3
2018-12-13T09:55:48.184Z,620.5
2018-12-13T09:56:50.599Z,620.6
2018-12-13T09:57:52.738Z,621.1
2018-12-13T09:58:54.855Z,620.9
2018-12-13T09:59:57.269Z,621.1
2018-12-13T10:00:59.694Z,621.1
2018-12-13T10:02:01.565Z,621.2
2018-12-13T10:03:03.983Z,621
2018-12-13T10:04:06.416Z,621.2
2018-12-13T10:05:08.568Z,621.9
2018-12-13T10:06:10.984Z,621.9
2018-12-13T10:07:28.076Z,621.8
2018-12-13T10:08:30.504Z,622
2018-12-13T10:09:32.927Z,621.7
2018-12-13T10:10:35.344Z,622
2018-12-13T10:11:37.770Z,622.3
2018-12-13T10:12:40.197Z,622.2
2018-12-13T10:13:42.341Z,622.7
2018-12-13T10:14:44.492Z,622.5
2018-12-13T10:15:46.925Z,622.3
2018-12-13T10:16:49.355Z,622.7
2018-12-13T10:17:51.508Z,622.6
2018-12-13T10:18:53.386Z,622.6
2018-12-13T10:19:55.548Z,622.5
2018-12-13T10:20:57.709Z,623.1
2018-12-13T10:22:00.126Z,622.8
2018-12-13T10:23:02.272Z,623.1
2018-12-13T10:24:04.416Z,623.3
2018-12-13T10:25:06.832Z,623.1
2018-12-13T10:26:09.259Z,623.9
2018-12-13T10:27:11.144Z,623
2018-12-13T10:28:13.574Z,623.3
2018-12-13T10:29:17.168Z,623.1
2018-12-13T10:30:19.324Z,623.3
2018-12-13T10:31:21.760Z,623.7
2018-12-13T10:32:23.964Z,623.3
2018-12-13T10:33:25.857Z,623.6
2018-12-13T10:34:28.287Z,623.4
2018-12-13T10:35:30.704Z,623.8
2018-12-13T10:36:33.128Z,623.3
2018-12-13T10:37:35.324Z,623.4
2018-12-13T10:38:37.771Z,623.6
2018-12-13T10:39:40.194Z,623.4
2018-12-13T10:40:42.624Z,623.5
2018-12-13T10:41:45.069Z,623.6
2018-12-13T10:42:47.502Z,623.2
2018-12-13T10:43:49.933Z,623.7
2018-12-13T10:44:52.376Z,623.8
2018-12-13T10:45:54.536Z,623.9
2018-12-13T10:46:56.964Z,624.1
2018-12-13T10:47:59.383Z,624
2018-12-13T10:49:01.291Z,624.1
2018-12-13T10:50:03.174Z,624.5
2018-12-13T10:51:05.334Z,624.4
2018-12-13T10:52:07.764Z,624.4
2018-12-13T10:53:09.960Z,624.2
2018-12-13T10:54:12.434Z,624.4
2018-12-13T10:55:14.865Z,624.2
2018-12-13T10:56:17.288Z,624.7
2018-12-13T10:57:19.434Z,624.7
2018-12-13T10:58:21.855Z,625
2018-12-13T10:59:24.002Z,625.4
2018-12-13T11:00:26.135Z,625.1
2018-12-13T11:01:28.560Z,624.9
2018-12-13T11:02:31.010Z,625.1
2018-12-13T11:03:33.443Z,625.2
2018-12-13T11:04:35.871Z,625
2018-12-13T11:05:38.289Z,624.9
2018-12-13T11:06:40.444Z,625.2
2018-12-13T11:07:42.895Z,625.3
2018-12-13T11:08:45.354Z,625.1
2018-12-13T11:09:47.820Z,625.5
2018-12-13T11:10:50.254Z,625.5
2018-12-13T11:11:52.675Z,625.5
2018-12-13T11:12:55.098Z,625.6
2018-12-13T11:13:57.536Z,625.6
2018-12-13T11:14:59.965Z,625.2
2018-12-13T11:16:02.405Z,625.8
2018-12-13T11:17:04.831Z,625.7
2018-12-13T11:18:07.001Z,625.5
2018-12-13T11:19:09.431Z,625.4
2018-12-13T11:20:11.863Z,625.5
2018-12-13T11:22:19.271Z,626.1
2018-12-13T11:23:21.687Z,625.9
2018-12-13T11:24:24.111Z,625.6
2018-12-13T11:25:26.264Z,626.3
2018-12-13T11:26:28.683Z,626.6
2018-12-13T11:27:31.111Z,626.6
2018-12-13T11:28:33.541Z,626.7
2018-12-13T11:29:36.019Z,626.7
2018-12-13T11:30:38.445Z,627.4
2018-12-13T11:31:40.323Z,627.2
2018-12-13T11:32:42.201Z,626.7
2018-12-13T11:33:44.637Z,626.7
2018-12-13T11:34:46.792Z,626.3
2018-12-13T11:35:49.227Z,626
2018-12-13T11:36:51.111Z,626.6
2018-12-13T11:37:53.535Z,626
2018-12-13T11:38:55.953Z,625.9
2018-12-13T11:39:58.165Z,626.2
2018-12-13T11:41:00.322Z,626.2
2018-12-13T11:42:02.474Z,626.3
2018-12-13T11:43:04.951Z,626.5
2018-12-13T11:44:07.386Z,626.6
2018-12-13T11:45:09.811Z,626.5
2018-12-13T11:46:12.242Z,626.7
2018-12-13T11:47:14.663Z,626.6
2018-12-13T11:48:17.089Z,626.8
2018-12-13T11:49:19.511Z,626.8
2018-12-13T11:50:21.937Z,626.8
2018-12-13T11:51:24.368Z,626.7
2018-12-13T11:52:26.814Z,627.5
2018-12-13T11:53:28.965Z,627
2018-12-13T11:54:31.387Z,626.5
2018-12-13T11:55:33.542Z,626.9
2018-12-13T11:56:35.694Z,627.7
2018-12-13T11:57:38.141Z,627.6
2018-12-13T11:58:40.291Z,627.7
2018-12-13T11:59:42.762Z,627.1
2018-12-13T12:00:45.184Z,627.6
2018-12-13T12:01:47.622Z,627.4
2018-12-13T12:02:49.772Z,627.8
2018-12-13T12:03:52.195Z,627.5
2018-12-13T12:04:54.612Z,627.4
2018-12-13T12:05:57.037Z,627.3
2018-12-13T12:06:59.455Z,627
2018-12-13T12:08:01.879Z,626.6
2018-12-13T12:09:04.320Z,627.1
2018-12-13T12:10:06.752Z,626.8
2018-12-13T12:11:09.183Z,627.9
2018-12-13T12:12:11.613Z,627.2
2018-12-13T12:13:14.042Z,627.2
2018-12-13T12:14:16.464Z,627.8
2018-12-13T12:15:18.610Z,627.7
2018-12-13T12:16:20.486Z,627.5
2018-12-13T12:17:22.908Z,627.7
2018-12-13T12:18:25.346Z,628
2018-12-13T12:19:27.517Z,628.1
2018-12-13T12:20:29.675Z,628.4
2018-12-13T12:21:32.108Z,627.8
2018-12-13T12:22:34.536Z,627.7
2018-12-13T12:23:36.988Z,627.6
2018-12-13T12:24:39.152Z,627.9
2018-12-13T12:25:41.329Z,627.8
2018-12-13T12:26:43.754Z,628
2018-12-13T12:27:46.182Z,627.9
2018-12-13T12:28:48.326Z,627.9
2018-12-13T12:29:50.502Z,628.8
2018-12-13T12:30:52.928Z,628.7
2018-12-13T12:31:55.381Z,628.8
2018-12-13T12:32:57.800Z,629.1
2018-12-13T12:34:00.232Z,628.5
2018-12-13T12:35:02.379Z,628.3
2018-12-13T12:36:04.812Z,628
2018-12-13T12:37:06.984Z,628.1
2018-12-13T12:38:09.117Z,628.2
2018-12-13T12:39:11.537Z,627.8
2018-12-13T12:40:13.975Z,627.9
2018-12-13T12:41:16.114Z,628.6
2018-12-13T12:42:18.542Z,628.2
2018-12-13T12:43:20.980Z,628
2018-12-13T12:44:23.415Z,628.1
2018-12-13T12:45:25.839Z,628.4
2018-12-13T12:46:28.260Z,628.7
2018-12-13T12:47:30.685Z,628.1
2018-12-13T12:48:32.829Z,628.9
2018-12-13T12:49:34.987Z,628.5
2018-12-13T12:50:37.156Z,628.7
2018-12-13T12:51:39.590Z,628.2
2018-12-13T12:52:42.070Z,628.6
2018-12-13T12:53:44.512Z,628.8
2018-12-13T12:54:46.936Z,628.5
2018-12-13T12:55:49.374Z,628.6
2018-12-13T12:56:51.800Z,628.6
2018-12-13T12:57:54.233Z,628.4
2018-12-13T12:58:56.132Z,628.5
2018-12-13T12:59:58.565Z,627.9
2018-12-13T13:01:00.995Z,628.6
2018-12-13T13:02:03.489Z,628.1
2018-12-13T13:03:05.935Z,628.6
2018-12-13T13:04:08.384Z,628.4
2018-12-13T13:05:10.814Z,628.8
2018-12-13T13:06:13.260Z,628.9
2018-12-13T13:07:15.433Z,629.2
2018-12-13T13:08:17.864Z,628.7
2018-12-13T13:10:25.284Z,628.7
2018-12-13T13:11:27.714Z,627.8
2018-12-13T13:12:29.906Z,628.1
2018-12-13T13:13:32.269Z,628.4
2018-12-13T13:14:34.158Z,628.3
2018-12-13T13:15:36.591Z,628.4
2018-12-13T13:16:39.029Z,628.4
2018-12-13T13:17:41.483Z,628.5
2018-12-13T13:18:43.075Z,629
2018-12-13T13:19:45.512Z,628.6
2018-12-13T13:20:47.972Z,628.1
2018-12-13T13:21:50.132Z,628.1
2018-12-13T13:22:52.617Z,628.3
2018-12-13T13:23:55.064Z,627.4
2018-12-13T13:24:57.505Z,627.6
2018-12-13T13:25:59.942Z,628
2018-12-13T13:27:02.104Z,628
2018-12-13T13:28:04.545Z,628.2
2018-12-13T13:29:06.692Z,627.9
2018-12-13T13:30:08.843Z,627.6
2018-12-13T13:31:11.282Z,627.9